Time;durP1;ratioP1;P1;durP2;ratioP2;P2;SDS_P1;SDS_P2;PMS_P1;PMS_P2;Temp;Humidity;BMP_temperature;BMP_pressure;BME280_temperature;BME280_humidity;BME280_pressure;Samples;Min_cycle;Max_cycle;Signal;HPM_P1;HPM_P2
2022/11/17 00:01:56;;;;;;;;;;;8.70;99.90;;;;;;5153567;27;19911;-47
2022/11/17 00:04:24;;;;;;;;;;;8.80;99.90;;;;;;5154429;27;19914;-42
2022/11/17 00:06:50;;;;;;;;;;;8.80;99.90;;;;;;5154220;27;19917;-44
2022/11/17 00:09:18;;;;;;;;;;;8.80;99.90;;;;;;5153227;27;19911;-42
2022/11/17 00:14:31;;;;;;;;;;;8.80;99.90;;;;;;5153309;27;19936;-42
2022/11/17 00:16:57;;;;;;;;;;;8.80;99.90;;;;;;5152789;27;19964;-40
2022/11/17 00:22:06;;;;;;;;;;;8.70;99.90;;;;;;5153574;27;19914;-42
2022/11/17 00:24:32;;;;;;;;;;;8.70;99.90;;;;;;5154106;27;20002;-42
2022/11/17 00:27:00;;;;;;;;;;;8.70;99.90;;;;;;5157038;27;19911;-43
2022/11/17 00:29:26;;;;;;;;;;;8.80;99.90;;;;;;5157758;27;20362;-40
2022/11/17 00:34:35;;;;;;;;;;;8.80;99.90;;;;;;5158604;27;19958;-41
2022/11/17 00:37:01;;;;;;;;;;;8.70;99.90;;;;;;5157080;27;19915;-40
2022/11/17 00:39:26;;;;;;;;;;;8.70;99.90;;;;;;5158092;27;20322;-41
2022/11/17 00:41:52;;;;;;;;;;;8.80;99.90;;;;;;5157912;27;20438;-42
2022/11/17 00:44:17;;;;;;;;;;;8.80;99.90;;;;;;5157113;27;19907;-43
2022/11/17 00:46:43;;;;;;;;;;;8.80;99.90;;;;;;5157211;27;19919;-40
2022/11/17 00:49:09;;;;;;;;;;;8.80;99.90;;;;;;5157891;27;19907;-44
2022/11/17 00:51:35;;;;;;;;;;;8.80;99.90;;;;;;5156983;27;19907;-40
2022/11/17 00:54:00;;;;;;;;;;;8.80;99.90;;;;;;5157383;27;19907;-40
2022/11/17 00:56:26;;;;;;;;;;;8.80;99.90;;;;;;5157236;27;19958;-42
2022/11/17 00:58:52;;;;;;;;;;;8.80;99.90;;;;;;5156607;27;19915;-40
2022/11/17 01:01:18;;;;;;;;;;;8.80;99.90;;;;;;5157533;27;19907;-41
2022/11/17 01:03:43;;;;;;;;;;;8.70;99.90;;;;;;5157514;27;19946;-41
2022/11/17 01:06:10;;;;;;;;;;;8.70;99.90;;;;;;5156407;27;19919;-40
2022/11/17 01:08:36;;;;;;;;;;;8.70;99.90;;;;;;5157165;27;19907;-40
2022/11/17 01:11:15;;;;;;;;;;;8.70;99.90;;;;;;5157529;27;20258;-40
2022/11/17 01:13:41;;;;;;;;;;;8.80;99.90;;;;;;5157233;27;19907;-45
2022/11/17 01:16:11;;;;;;;;;;;8.70;99.90;;;;;;5156965;27;19911;-41
2022/11/17 01:18:36;;;;;;;;;;;8.70;99.90;;;;;;5156530;27;19947;-42
2022/11/17 01:21:03;;;;;;;;;;;8.70;99.90;;;;;;5157250;27;19907;-42
2022/11/17 01:23:28;;;;;;;;;;;8.70;99.90;;;;;;5157160;27;20005;-45
2022/11/17 01:25:59;;;;;;;;;;;8.70;99.90;;;;;;5155916;27;20063;-42
2022/11/17 01:28:25;;;;;;;;;;;8.70;99.90;;;;;;5157193;27;19914;-45
2022/11/17 01:30:57;;;;;;;;;;;8.70;99.90;;;;;;5157038;27;19911;-42
2022/11/17 01:33:22;;;;;;;;;;;8.70;99.90;;;;;;5156403;27;19966;-41
2022/11/17 01:35:48;;;;;;;;;;;8.80;99.90;;;;;;5156598;27;19911;-41
2022/11/17 01:38:13;;;;;;;;;;;8.80;99.90;;;;;;5155980;27;19907;-40
2022/11/17 01:40:39;;;;;;;;;;;8.80;99.90;;;;;;5155869;27;19919;-43
2022/11/17 01:43:08;;;;;;;;;;;8.70;99.90;;;;;;5156941;27;19911;-41
2022/11/17 01:45:33;;;;;;;;;;;8.70;99.90;;;;;;5156315;27;19923;-40
2022/11/17 01:48:01;;;;;;;;;;;8.70;99.90;;;;;;5156027;27;19952;-40
2022/11/17 01:50:31;;;;;;;;;;;8.70;99.90;;;;;;5155949;27;21563;-41
2022/11/17 01:52:58;;;;;;;;;;;8.70;99.90;;;;;;5156706;27;19907;-41
2022/11/17 01:55:26;;;;;;;;;;;8.80;99.90;;;;;;5155527;27;19917;-42
2022/11/17 01:57:55;;;;;;;;;;;8.70;99.90;;;;;;5156275;27;19934;-43
2022/11/17 02:00:21;;;;;;;;;;;8.80;99.90;;;;;;5156587;27;19911;-39
2022/11/17 02:02:47;;;;;;;;;;;8.70;99.90;;;;;;5155650;27;19911;-40
2022/11/17 02:05:31;;;;;;;;;;;8.70;99.90;;;;;;5155590;27;19918;-43
2022/11/17 02:07:59;;;;;;;;;;;8.80;99.90;;;;;;5155481;27;19967;-43
2022/11/17 02:10:28;;;;;;;;;;;8.70;99.90;;;;;;5156152;27;19911;-43
2022/11/17 02:12:54;;;;;;;;;;;8.70;99.90;;;;;;5156153;27;19907;-42
2022/11/17 02:15:20;;;;;;;;;;;8.80;99.90;;;;;;5155151;27;19911;-41
2022/11/17 02:17:46;;;;;;;;;;;8.70;99.90;;;;;;5156104;27;19907;-42
2022/11/17 02:20:37;;;;;;;;;;;8.70;99.90;;;;;;5156118;27;19959;-41
2022/11/17 02:23:14;;;;;;;;;;;8.70;99.90;;;;;;5115191;27;19907;-39
2022/11/17 02:25:52;;;;;;;;;;;8.70;99.90;;;;;;5155450;27;19954;-43
2022/11/17 02:28:27;;;;;;;;;;;8.70;99.90;;;;;;5155786;27;20319;-41
2022/11/17 02:31:19;;;;;;;;;;;8.70;99.90;;;;;;5154904;27;19907;-40
2022/11/17 02:33:47;;;;;;;;;;;8.70;99.90;;;;;;5156019;27;19907;-42
2022/11/17 02:36:17;;;;;;;;;;;8.60;99.90;;;;;;5154608;27;19964;-44
2022/11/17 02:38:49;;;;;;;;;;;8.60;99.90;;;;;;5155691;27;19930;-40
2022/11/17 02:41:21;;;;;;;;;;;8.60;99.90;;;;;;5155670;27;20199;-41
2022/11/17 02:44:04;;;;;;;;;;;8.60;99.90;;;;;;5154811;27;19938;-39
2022/11/17 02:46:39;;;;;;;;;;;8.50;99.90;;;;;;5155102;27;20374;-40
2022/11/17 02:49:07;;;;;;;;;;;8.50;99.90;;;;;;5155426;27;19958;-42
2022/11/17 02:51:33;;;;;;;;;;;8.50;99.90;;;;;;5154647;27;19968;-43
2022/11/17 02:54:00;;;;;;;;;;;8.50;99.90;;;;;;5155386;27;20358;-42
2022/11/17 02:56:25;;;;;;;;;;;8.50;99.90;;;;;;5154979;27;20277;-42
2022/11/17 02:58:53;;;;;;;;;;;8.50;99.90;;;;;;5154456;27;19998;-40
2022/11/17 03:01:28;;;;;;;;;;;8.50;99.90;;;;;;5155263;27;19982;-40
2022/11/17 03:04:10;;;;;;;;;;;8.50;99.90;;;;;;5154374;27;19997;-40
2022/11/17 03:06:35;;;;;;;;;;;8.40;99.90;;;;;;5150458;27;20343;-41
2022/11/17 03:09:11;;;;;;;;;;;8.40;99.90;;;;;;5134355;27;19908;-40
2022/11/17 03:11:52;;;;;;;;;;;8.40;99.90;;;;;;5133380;27;20278;-43
2022/11/17 03:14:30;;;;;;;;;;;8.40;99.90;;;;;;5149710;27;19911;-40
2022/11/17 03:16:59;;;;;;;;;;;8.40;99.90;;;;;;5155022;27;19917;-40
2022/11/17 03:19:27;;;;;;;;;;;8.40;99.90;;;;;;5154252;27;20004;-40
2022/11/17 03:22:02;;;;;;;;;;;8.40;99.90;;;;;;5154800;27;20486;-41
2022/11/17 03:24:38;;;;;;;;;;;8.40;99.90;;;;;;5154545;27;20357;-40
2022/11/17 03:27:06;;;;;;;;;;;8.30;99.90;;;;;;5154201;27;19911;-40
2022/11/17 03:29:33;;;;;;;;;;;8.30;99.90;;;;;;5154813;27;19911;-40
2022/11/17 03:32:00;;;;;;;;;;;8.30;99.90;;;;;;5154040;27;19911;-42
2022/11/17 03:34:28;;;;;;;;;;;8.30;99.90;;;;;;5154381;27;19958;-40
2022/11/17 03:36:57;;;;;;;;;;;8.30;99.90;;;;;;5154606;27;19911;-41
2022/11/17 03:39:33;;;;;;;;;;;8.20;99.90;;;;;;5153635;27;19907;-40
2022/11/17 03:42:01;;;;;;;;;;;8.20;99.90;;;;;;5154777;27;19918;-40
2022/11/17 03:44:28;;;;;;;;;;;8.20;99.90;;;;;;5154044;27;19907;-40
2022/11/17 03:46:54;;;;;;;;;;;8.20;99.90;;;;;;5153716;27;19930;-42
2022/11/17 03:49:25;;;;;;;;;;;8.20;99.90;;;;;;5154604;27;20051;-41
2022/11/17 03:51:51;;;;;;;;;;;8.20;99.90;;;;;;5154528;27;19918;-39
2022/11/17 03:54:16;;;;;;;;;;;8.20;99.90;;;;;;5153485;27;19912;-40
2022/11/17 03:56:42;;;;;;;;;;;8.20;99.90;;;;;;5154332;27;20373;-40
2022/11/17 03:59:14;;;;;;;;;;;8.10;99.90;;;;;;5154425;27;19915;-42
2022/11/17 04:01:40;;;;;;;;;;;8.20;99.90;;;;;;5153007;27;19916;-39
2022/11/17 04:04:06;;;;;;;;;;;8.20;99.90;;;;;;5154253;27;20327;-39
2022/11/17 04:06:31;;;;;;;;;;;8.10;99.90;;;;;;5154335;27;19919;-40
2022/11/17 04:08:57;;;;;;;;;;;8.10;99.90;;;;;;5153838;27;19907;-39
2022/11/17 04:16:51;;;;;;;;;;;8.10;99.90;;;;;;5154733;27;20348;-40
2022/11/17 04:19:17;;;;;;;;;;;8.10;99.90;;;;;;5154279;27;19915;-40
2022/11/17 04:21:42;;;;;;;;;;;8.00;99.90;;;;;;5153376;27;20254;-40
2022/11/17 04:24:07;;;;;;;;;;;8.00;99.90;;;;;;5153941;27;19915;-42
2022/11/17 04:29:17;;;;;;;;;;;8.00;99.90;;;;;;5153361;27;19961;-42
2022/11/17 04:31:43;;;;;;;;;;;8.00;99.90;;;;;;5154033;27;19950;-43
2022/11/17 04:34:08;;;;;;;;;;;8.00;99.90;;;;;;5153868;27;19907;-41
2022/11/17 04:36:35;;;;;;;;;;;8.00;99.90;;;;;;5153315;27;20141;-41
2022/11/17 04:39:01;;;;;;;;;;;8.00;99.90;;;;;;5154192;27;19930;-42
2022/11/17 04:44:12;;;;;;;;;;;7.90;99.90;;;;;;5153676;27;19957;-41
2022/11/17 04:46:38;;;;;;;;;;;7.90;99.90;;;;;;5153239;27;19923;-40
2022/11/17 04:49:04;;;;;;;;;;;7.90;99.90;;;;;;5153614;27;19911;-40
2022/11/17 04:51:30;;;;;;;;;;;7.90;99.90;;;;;;5152744;27;19914;-39
2022/11/17 04:53:56;;;;;;;;;;;7.90;99.90;;;;;;5154080;27;19919;-39
2022/11/17 04:56:22;;;;;;;;;;;7.90;99.90;;;;;;5152644;27;19907;-40
2022/11/17 04:58:48;;;;;;;;;;;7.80;99.90;;;;;;5153942;27;19911;-39
2022/11/17 05:01:14;;;;;;;;;;;7.80;99.90;;;;;;5153996;27;19907;-40
2022/11/17 05:03:50;;;;;;;;;;;7.80;99.90;;;;;;5152940;27;19954;-40
2022/11/17 05:06:17;;;;;;;;;;;7.80;99.90;;;;;;5153704;27;19915;-39
2022/11/17 05:08:43;;;;;;;;;;;7.70;99.90;;;;;;5153757;27;19938;-39
2022/11/17 05:13:54;;;;;;;;;;;7.70;99.90;;;;;;5136298;27;19972;-39
2022/11/17 05:19:04;;;;;;;;;;;7.70;99.90;;;;;;5136348;27;19914;-39
2022/11/17 05:21:30;;;;;;;;;;;7.60;99.90;;;;;;5152648;27;19907;-39
2022/11/17 05:23:56;;;;;;;;;;;7.60;99.90;;;;;;5157268;27;19919;-41
2022/11/17 05:26:25;;;;;;;;;;;7.60;99.90;;;;;;5156397;27;19998;-40
2022/11/17 05:28:51;;;;;;;;;;;7.60;99.90;;;;;;5157093;27;20254;-40
2022/11/17 05:31:16;;;;;;;;;;;7.60;99.90;;;;;;5156775;27;19918;-40
2022/11/17 05:33:42;;;;;;;;;;;7.60;99.90;;;;;;5156058;27;19915;-41
2022/11/17 05:36:07;;;;;;;;;;;7.60;99.90;;;;;;5157062;27;19918;-40
2022/11/17 05:38:33;;;;;;;;;;;7.50;99.90;;;;;;5156156;27;19915;-41
2022/11/17 05:40:59;;;;;;;;;;;7.60;99.90;;;;;;5156545;27;20387;-40
2022/11/17 05:43:24;;;;;;;;;;;7.50;99.90;;;;;;5156927;27;20072;-40
2022/11/17 05:45:50;;;;;;;;;;;7.50;99.90;;;;;;5155609;27;20373;-40
2022/11/17 05:48:15;;;;;;;;;;;7.50;99.90;;;;;;5156423;27;19913;-40
2022/11/17 05:50:41;;;;;;;;;;;7.50;99.90;;;;;;5156700;27;19907;-39
2022/11/17 05:53:06;;;;;;;;;;;7.40;99.90;;;;;;5156049;27;19911;-39
2022/11/17 05:55:32;;;;;;;;;;;7.40;99.90;;;;;;5156364;27;20145;-40
2022/11/17 05:58:01;;;;;;;;;;;7.40;99.90;;;;;;5156583;27;19911;-41
2022/11/17 06:00:27;;;;;;;;;;;7.40;99.90;;;;;;5155329;27;20002;-40
2022/11/17 06:02:55;;;;;;;;;;;7.40;99.90;;;;;;5156453;27;20010;-40
2022/11/17 06:05:22;;;;;;;;;;;7.40;99.90;;;;;;5156386;27;19927;-42
2022/11/17 06:07:49;;;;;;;;;;;7.40;99.90;;;;;;5155482;27;19988;-40
2022/11/17 06:10:14;;;;;;;;;;;7.40;99.90;;;;;;5155359;27;19911;-39
2022/11/17 06:12:39;;;;;;;;;;;7.30;99.90;;;;;;5156134;27;19929;-42
2022/11/17 06:15:05;;;;;;;;;;;7.30;99.90;;;;;;5155572;27;19942;-39
2022/11/17 06:17:33;;;;;;;;;;;7.30;99.90;;;;;;5155204;27;19919;-41
2022/11/17 06:20:01;;;;;;;;;;;7.30;99.90;;;;;;5154251;27;19955;-41
2022/11/17 06:22:27;;;;;;;;;;;7.30;99.90;;;;;;5153685;27;19907;-40
2022/11/17 06:24:53;;;;;;;;;;;7.30;99.90;;;;;;5153103;27;19919;-40
2022/11/17 06:27:19;;;;;;;;;;;7.30;99.90;;;;;;5155842;27;20332;-40
2022/11/17 06:29:45;;;;;;;;;;;7.20;99.90;;;;;;5155290;27;19913;-40
2022/11/17 06:32:15;;;;;;;;;;;7.20;99.90;;;;;;5155725;27;20396;-41
2022/11/17 06:34:41;;;;;;;;;;;7.30;99.90;;;;;;5155164;27;20126;-40
2022/11/17 06:37:07;;;;;;;;;;;7.30;99.90;;;;;;5155904;27;20007;-41
2022/11/17 06:39:32;;;;;;;;;;;7.30;99.90;;;;;;5155465;27;20076;-39
2022/11/17 06:41:58;;;;;;;;;;;7.30;99.90;;;;;;5153988;27;19918;-40
2022/11/17 06:44:23;;;;;;;;;;;7.20;99.90;;;;;;5154349;27;19911;-41
2022/11/17 06:46:48;;;;;;;;;;;7.20;99.90;;;;;;5155106;27;19919;-40
2022/11/17 06:49:14;;;;;;;;;;;7.30;99.90;;;;;;5154646;27;19907;-40
2022/11/17 06:51:39;;;;;;;;;;;7.30;99.90;;;;;;5155480;27;19914;-41
2022/11/17 06:54:07;;;;;;;;;;;7.20;99.90;;;;;;5155450;27;20231;-44
2022/11/17 06:56:33;;;;;;;;;;;7.20;99.90;;;;;;5154566;27;19960;-40
2022/11/17 06:58:58;;;;;;;;;;;7.30;99.90;;;;;;5155289;27;19907;-40
2022/11/17 07:01:24;;;;;;;;;;;7.30;99.90;;;;;;5155234;27;20005;-39
2022/11/17 07:03:49;;;;;;;;;;;7.30;99.90;;;;;;5154436;27;19908;-42
2022/11/17 07:06:15;;;;;;;;;;;7.30;99.90;;;;;;5155194;27;20017;-38
2022/11/17 07:08:40;;;;;;;;;;;7.30;99.90;;;;;;5155120;27;19914;-39
2022/11/17 07:11:10;;;;;;;;;;;7.30;99.90;;;;;;5154216;27;20321;-39
2022/11/17 07:13:36;;;;;;;;;;;7.30;99.90;;;;;;5155027;27;19907;-40
2022/11/17 07:16:05;;;;;;;;;;;7.30;99.90;;;;;;5155142;27;19914;-41
2022/11/17 07:18:31;;;;;;;;;;;7.30;99.90;;;;;;5154160;27;19914;-41
2022/11/17 07:21:04;;;;;;;;;;;7.30;99.90;;;;;;5154904;27;19908;-42
2022/11/17 07:23:33;;;;;;;;;;;7.30;99.90;;;;;;5154832;27;20333;-41
2022/11/17 07:25:59;;;;;;;;;;;7.30;99.90;;;;;;5154492;27;19916;-40
2022/11/17 07:28:25;;;;;;;;;;;7.30;99.90;;;;;;5154867;27;19930;-43
2022/11/17 07:30:50;;;;;;;;;;;7.30;99.90;;;;;;5154758;27;20285;-40
2022/11/17 07:33:16;;;;;;;;;;;7.30;99.90;;;;;;5154118;27;19911;-39
2022/11/17 07:35:42;;;;;;;;;;;7.30;99.90;;;;;;5154046;27;20430;-41
2022/11/17 07:38:07;;;;;;;;;;;7.30;99.90;;;;;;5152808;27;20314;-41
2022/11/17 07:40:33;;;;;;;;;;;7.40;99.90;;;;;;5154467;27;19908;-40
2022/11/17 07:42:58;;;;;;;;;;;7.30;99.90;;;;;;5154658;27;19959;-40
2022/11/17 07:45:24;;;;;;;;;;;7.30;99.90;;;;;;5151056;27;20330;-41
2022/11/17 07:47:56;;;;;;;;;;;7.30;99.90;;;;;;5120238;27;20373;-43
2022/11/17 07:50:22;;;;;;;;;;;7.30;99.90;;;;;;5124533;27;19911;-40
2022/11/17 07:52:48;;;;;;;;;;;7.30;99.90;;;;;;5125931;27;20282;-40
2022/11/17 07:55:13;;;;;;;;;;;7.30;99.90;;;;;;5112646;28;19965;-41
2022/11/17 07:57:39;;;;;;;;;;;7.30;99.90;;;;;;5113117;28;20375;-40
2022/11/17 08:00:05;;;;;;;;;;;7.30;99.90;;;;;;5120238;28;20433;-39
2022/11/17 08:02:30;;;;;;;;;;;7.30;99.90;;;;;;5133546;28;19907;-39
2022/11/17 08:04:55;;;;;;;;;;;7.30;99.90;;;;;;5133544;28;19915;-38
2022/11/17 08:07:21;;;;;;;;;;;7.30;99.90;;;;;;5115754;28;20686;-39
2022/11/17 08:09:46;;;;;;;;;;;7.30;99.90;;;;;;5112344;28;20287;-39
2022/11/17 08:12:12;;;;;;;;;;;7.40;99.90;;;;;;5113103;28;19908;-39
2022/11/17 08:14:37;;;;;;;;;;;7.40;99.90;;;;;;5121464;28;19947;-39
2022/11/17 08:17:03;;;;;;;;;;;7.40;99.90;;;;;;5133620;28;19911;-40
2022/11/17 08:19:28;;;;;;;;;;;7.40;99.90;;;;;;5128183;28;19915;-40
2022/11/17 08:21:54;;;;;;;;;;;7.40;99.90;;;;;;5112051;28;19931;-42
2022/11/17 08:24:19;;;;;;;;;;;7.40;99.90;;;;;;5111938;28;19911;-39
2022/11/17 08:26:45;;;;;;;;;;;7.40;99.90;;;;;;5121195;28;20011;-39
2022/11/17 08:29:10;;;;;;;;;;;7.40;99.90;;;;;;5132467;28;19968;-40
2022/11/17 08:31:36;;;;;;;;;;;7.50;99.90;;;;;;5123082;28;20328;-41
2022/11/17 08:34:01;;;;;;;;;;;7.40;99.90;;;;;;5113095;28;20006;-41
2022/11/17 08:36:26;;;;;;;;;;;7.40;99.90;;;;;;5112875;28;19954;-40
2022/11/17 08:38:52;;;;;;;;;;;7.50;99.90;;;;;;5107065;28;19912;-41
2022/11/17 08:41:18;;;;;;;;;;;7.40;99.90;;;;;;5110819;28;20386;-39
2022/11/17 08:43:44;;;;;;;;;;;7.40;99.90;;;;;;5109912;28;19923;-43
2022/11/17 08:46:10;;;;;;;;;;;7.40;99.90;;;;;;5120193;27;20427;-41
2022/11/17 08:48:36;;;;;;;;;;;7.40;99.90;;;;;;5136243;27;19918;-40
2022/11/17 08:51:05;;;;;;;;;;;7.40;99.90;;;;;;5135953;27;19911;-40
2022/11/17 08:53:30;;;;;;;;;;;7.40;99.90;;;;;;5134965;27;20397;-39
2022/11/17 08:55:56;;;;;;;;;;;7.40;99.90;;;;;;5134945;27;19907;-41
2022/11/17 08:58:21;;;;;;;;;;;7.40;99.90;;;;;;5134754;27;19911;-40
2022/11/17 09:00:47;;;;;;;;;;;7.40;99.90;;;;;;5133913;27;19911;-41
2022/11/17 09:03:12;;;;;;;;;;;7.40;99.90;;;;;;5134102;27;19911;-39
2022/11/17 09:05:38;;;;;;;;;;;7.40;99.90;;;;;;5134580;27;20312;-39
2022/11/17 09:08:04;;;;;;;;;;;7.40;99.90;;;;;;5126421;27;20208;-41
2022/11/17 09:10:29;;;;;;;;;;;7.40;99.90;;;;;;5126573;27;20427;-40
2022/11/17 09:12:55;;;;;;;;;;;7.40;99.90;;;;;;5133469;27;19912;-39
2022/11/17 09:15:21;;;;;;;;;;;7.30;99.90;;;;;;5134382;27;19912;-39
2022/11/17 09:17:46;;;;;;;;;;;7.30;99.90;;;;;;5135090;27;19960;-43
2022/11/17 09:20:12;;;;;;;;;;;7.40;99.90;;;;;;5137336;27;19950;-39
2022/11/17 09:22:38;;;;;;;;;;;7.40;99.90;;;;;;5133307;27;20495;-43
2022/11/17 09:25:03;;;;;;;;;;;7.40;99.90;;;;;;5131844;27;19919;-39
2022/11/17 09:27:29;;;;;;;;;;;7.40;99.90;;;;;;5135510;27;19907;-40
2022/11/17 09:29:54;;;;;;;;;;;7.40;99.90;;;;;;5128489;27;19911;-40
2022/11/17 09:32:20;;;;;;;;;;;7.40;99.90;;;;;;5135652;27;20418;-40
2022/11/17 09:34:45;;;;;;;;;;;7.40;99.90;;;;;;5114706;27;19919;-40
2022/11/17 09:37:11;;;;;;;;;;;7.50;99.90;;;;;;5134941;27;19931;-40
2022/11/17 09:39:36;;;;;;;;;;;7.50;99.90;;;;;;5135187;27;19959;-43
2022/11/17 09:42:02;;;;;;;;;;;7.60;99.90;;;;;;5124826;27;20359;-42
2022/11/17 09:44:38;;;;;;;;;;;7.60;99.90;;;;;;5114788;28;19920;-40
2022/11/17 09:47:09;;;;;;;;;;;7.50;99.90;;;;;;5133242;27;19919;-39
2022/11/17 09:49:41;;;;;;;;;;;7.50;99.90;;;;;;5135758;27;19931;-39
2022/11/17 09:52:13;;;;;;;;;;;7.50;99.90;;;;;;5134243;27;19911;-42
2022/11/17 09:54:44;;;;;;;;;;;7.50;99.90;;;;;;5134680;27;19912;-41
2022/11/17 09:57:27;;;;;;;;;;;7.60;99.90;;;;;;5135422;27;19911;-39
2022/11/17 10:00:00;;;;;;;;;;;7.50;99.90;;;;;;5133957;27;20002;-41
2022/11/17 10:02:25;;;;;;;;;;;7.50;99.90;;;;;;5134446;27;19911;-39
2022/11/17 10:04:50;;;;;;;;;;;7.50;99.90;;;;;;5134777;27;19985;-38
2022/11/17 10:07:16;;;;;;;;;;;7.50;99.90;;;;;;5127300;27;20347;-43
2022/11/17 10:09:43;;;;;;;;;;;7.60;99.90;;;;;;5113978;27;19945;-40
2022/11/17 10:12:19;;;;;;;;;;;7.60;99.90;;;;;;5129192;27;19938;-41
2022/11/17 10:14:46;;;;;;;;;;;7.70;99.90;;;;;;5133345;27;19911;-43
2022/11/17 10:17:12;;;;;;;;;;;7.70;99.90;;;;;;5120416;27;19916;-41
2022/11/17 10:19:38;;;;;;;;;;;7.70;99.90;;;;;;5129481;27;20278;-38
2022/11/17 10:22:04;;;;;;;;;;;7.70;99.90;;;;;;5134339;27;19918;-40
2022/11/17 10:24:33;;;;;;;;;;;7.70;99.90;;;;;;5133652;27;19934;-41
2022/11/17 10:27:16;;;;;;;;;;;7.70;99.90;;;;;;5134114;27;20345;-39
2022/11/17 10:29:54;;;;;;;;;;;7.60;99.90;;;;;;5127628;27;19919;-39
2022/11/17 10:32:19;;;;;;;;;;;7.60;99.90;;;;;;5127865;27;19918;-42
2022/11/17 10:34:46;;;;;;;;;;;7.70;99.90;;;;;;5110992;28;19907;-39
2022/11/17 10:37:11;;;;;;;;;;;7.70;99.90;;;;;;5129425;27;19915;-40
2022/11/17 10:39:39;;;;;;;;;;;7.70;99.90;;;;;;5128732;27;19912;-41
2022/11/17 10:42:19;;;;;;;;;;;7.70;99.90;;;;;;5127595;27;20506;-41
2022/11/17 10:44:50;;;;;;;;;;;7.70;99.90;;;;;;5133967;27;19917;-40
2022/11/17 10:47:34;;;;;;;;;;;7.80;99.90;;;;;;5134282;27;19944;-40
2022/11/17 10:50:18;;;;;;;;;;;7.80;99.90;;;;;;5133103;27;20450;-40
2022/11/17 10:52:44;;;;;;;;;;;7.80;99.90;;;;;;5134310;27;20417;-40
2022/11/17 10:55:20;;;;;;;;;;;7.90;99.90;;;;;;5133376;27;20014;-39
2022/11/17 10:57:50;;;;;;;;;;;8.00;99.90;;;;;;5134358;27;19907;-40
2022/11/17 11:00:26;;;;;;;;;;;8.00;99.90;;;;;;5133357;27;20330;-43
2022/11/17 11:03:03;;;;;;;;;;;8.00;99.90;;;;;;5122274;27;19912;-41
2022/11/17 11:05:28;;;;;;;;;;;7.90;99.90;;;;;;5133513;27;19969;-40
2022/11/17 11:08:07;;;;;;;;;;;7.90;99.90;;;;;;5133793;27;19919;-41
2022/11/17 11:10:33;;;;;;;;;;;8.00;99.90;;;;;;5132255;27;19911;-40
2022/11/17 11:13:03;;;;;;;;;;;7.90;99.90;;;;;;5127311;27;20044;-39
2022/11/17 11:15:30;;;;;;;;;;;8.00;99.90;;;;;;5113538;28;20079;-40
2022/11/17 11:17:55;;;;;;;;;;;7.90;99.90;;;;;;5112983;28;19919;-41
2022/11/17 11:20:29;;;;;;;;;;;7.90;99.90;;;;;;5119473;27;20016;-40
2022/11/17 11:22:58;;;;;;;;;;;7.90;99.90;;;;;;5120951;27;19984;-42
2022/11/17 11:25:42;;;;;;;;;;;7.90;99.90;;;;;;5128769;27;19919;-40
2022/11/17 11:28:10;;;;;;;;;;;7.90;99.90;;;;;;5117407;27;19916;-42
2022/11/17 11:30:51;;;;;;;;;;;7.90;99.90;;;;;;5112103;28;20405;-40
2022/11/17 11:33:22;;;;;;;;;;;7.90;99.90;;;;;;5112956;28;19919;-42
2022/11/17 11:35:48;;;;;;;;;;;7.90;99.90;;;;;;5112859;27;19907;-42
2022/11/17 11:38:19;;;;;;;;;;;7.90;99.90;;;;;;5131188;27;19912;-40
2022/11/17 11:40:50;;;;;;;;;;;8.00;99.90;;;;;;5131879;27;19947;-41
2022/11/17 11:43:31;;;;;;;;;;;8.00;99.90;;;;;;5132617;27;19911;-41
2022/11/17 11:46:09;;;;;;;;;;;8.10;99.90;;;;;;5130053;27;19926;-39
2022/11/17 11:48:38;;;;;;;;;;;8.10;99.90;;;;;;5126837;27;19907;-41
2022/11/17 11:51:09;;;;;;;;;;;8.10;99.90;;;;;;5150226;27;19911;-42
2022/11/17 11:53:40;;;;;;;;;;;8.00;99.90;;;;;;5125864;27;19914;-41
2022/11/17 11:56:08;;;;;;;;;;;8.10;99.90;;;;;;5132396;27;19915;-40
2022/11/17 11:58:36;;;;;;;;;;;8.10;99.90;;;;;;5131783;27;20334;-42
2022/11/17 12:01:07;;;;;;;;;;;8.10;99.90;;;;;;5132622;28;19922;-40
2022/11/17 12:03:34;;;;;;;;;;;8.10;99.90;;;;;;5132929;28;19907;-42
2022/11/17 12:09:04;;;;;;;;;;;8.20;99.90;;;;;;5132918;28;19914;-41
2022/11/17 12:14:16;;;;;;;;;;;8.30;99.90;;;;;;5132986;28;19930;-42
2022/11/17 12:16:43;;;;;;;;;;;8.40;99.90;;;;;;5133437;28;19923;-44
2022/11/17 12:19:38;;;;;;;;;;;8.40;99.90;;;;;;5127131;28;20097;-42
2022/11/17 12:22:03;;;;;;;;;;;8.40;99.90;;;;;;5052405;27;19913;-41
2022/11/17 12:24:36;;;;;;;;;;;8.40;99.90;;;;;;5136887;27;20019;-40
2022/11/17 12:27:20;;;;;;;;;;;8.40;99.90;;;;;;5136294;27;19976;-45
2022/11/17 12:29:46;;;;;;;;;;;8.40;99.90;;;;;;5136291;27;19911;-40
2022/11/17 12:32:31;;;;;;;;;;;8.40;99.90;;;;;;5137017;27;19912;-42
2022/11/17 12:35:21;;;;;;;;;;;8.40;99.90;;;;;;5136220;27;20250;-41
2022/11/17 12:37:47;;;;;;;;;;;8.50;99.90;;;;;;5136517;27;19915;-43
2022/11/17 12:40:31;;;;;;;;;;;8.50;99.90;;;;;;5137036;27;20262;-41
2022/11/17 12:43:14;;;;;;;;;;;8.50;99.90;;;;;;5133558;27;19915;-43
2022/11/17 12:45:52;;;;;;;;;;;8.50;99.90;;;;;;5128551;27;19920;-43
2022/11/17 12:48:22;;;;;;;;;;;8.60;99.90;;;;;;5135316;27;19965;-40
2022/11/17 12:50:54;;;;;;;;;;;8.60;99.90;;;;;;5136550;27;19916;-40
2022/11/17 12:53:41;;;;;;;;;;;8.70;99.90;;;;;;5137457;27;19911;-42
2022/11/17 12:56:06;;;;;;;;;;;8.70;99.90;;;;;;5118031;27;19943;-39
2022/11/17 12:58:47;;;;;;;;;;;8.80;99.90;;;;;;5135848;27;20330;-41
2022/11/17 13:01:31;;;;;;;;;;;8.90;99.90;;;;;;5136388;27;19915;-40
2022/11/17 13:03:59;;;;;;;;;;;8.90;99.90;;;;;;5135678;27;19911;-42
2022/11/17 13:06:25;;;;;;;;;;;9.00;99.90;;;;;;5136294;27;20011;-42
2022/11/17 13:09:00;;;;;;;;;;;9.00;99.90;;;;;;5134834;27;19949;-39
2022/11/17 13:11:26;;;;;;;;;;;9.00;99.90;;;;;;5136012;27;20314;-41
2022/11/17 13:14:07;;;;;;;;;;;8.90;99.90;;;;;;5136285;27;19907;-40
2022/11/17 13:16:33;;;;;;;;;;;8.90;99.90;;;;;;5129059;27;19912;-42
2022/11/17 13:18:59;;;;;;;;;;;8.90;99.90;;;;;;5136258;27;20010;-46
2022/11/17 13:21:24;;;;;;;;;;;8.90;99.90;;;;;;5136405;27;20011;-46
2022/11/17 13:23:50;;;;;;;;;;;8.90;99.90;;;;;;5135675;27;19907;-42
2022/11/17 13:26:15;;;;;;;;;;;8.90;99.90;;;;;;5128464;27;19924;-41
2022/11/17 13:28:41;;;;;;;;;;;8.90;99.90;;;;;;5117820;27;19916;-42
2022/11/17 13:31:12;;;;;;;;;;;8.90;99.90;;;;;;5119756;27;20301;-40
2022/11/17 13:33:38;;;;;;;;;;;8.80;99.90;;;;;;5134751;27;19908;-42
2022/11/17 13:36:06;;;;;;;;;;;8.80;99.90;;;;;;5128864;27;19990;-41
2022/11/17 13:38:31;;;;;;;;;;;8.80;99.90;;;;;;5135101;27;19908;-43
2022/11/17 13:40:57;;;;;;;;;;;8.80;99.90;;;;;;5135403;27;19927;-43
2022/11/17 13:43:23;;;;;;;;;;;8.80;99.90;;;;;;5136160;27;20378;-44
2022/11/17 13:45:49;;;;;;;;;;;8.70;99.90;;;;;;5134118;27;19923;-42
2022/11/17 13:48:35;;;;;;;;;;;8.70;99.90;;;;;;5135815;27;19922;-44
2022/11/17 13:51:19;;;;;;;;;;;8.60;99.90;;;;;;5134857;27;19952;-43
2022/11/17 13:53:54;;;;;;;;;;;8.70;99.90;;;;;;5135373;27;19919;-41
2022/11/17 13:56:31;;;;;;;;;;;8.70;99.90;;;;;;5131718;27;19912;-43
2022/11/17 13:58:57;;;;;;;;;;;8.70;99.90;;;;;;5134596;27;20504;-43
2022/11/17 14:01:27;;;;;;;;;;;8.60;99.90;;;;;;5135438;27;20007;-41
2022/11/17 14:04:10;;;;;;;;;;;8.60;99.90;;;;;;5135450;27;19911;-41
2022/11/17 14:06:53;;;;;;;;;;;8.60;99.90;;;;;;5134181;27;19915;-41
2022/11/17 14:09:18;;;;;;;;;;;8.70;99.90;;;;;;5135384;27;19969;-42
2022/11/17 14:11:44;;;;;;;;;;;8.60;99.90;;;;;;5134965;27;19935;-40
2022/11/17 14:14:16;;;;;;;;;;;8.60;99.90;;;;;;5134591;27;19911;-43
2022/11/17 14:16:41;;;;;;;;;;;8.60;99.90;;;;;;5134096;27;19938;-43
2022/11/17 14:19:13;;;;;;;;;;;8.60;99.90;;;;;;5134674;27;19947;-42
2022/11/17 14:21:55;;;;;;;;;;;8.60;99.90;;;;;;5134978;27;19908;-45
2022/11/17 14:24:21;;;;;;;;;;;8.60;99.90;;;;;;5127222;27;19929;-41
2022/11/17 14:26:46;;;;;;;;;;;8.60;99.90;;;;;;5134204;27;19923;-42
2022/11/17 14:29:12;;;;;;;;;;;8.60;99.90;;;;;;5134863;27;19915;-41
2022/11/17 14:31:38;;;;;;;;;;;8.60;99.90;;;;;;5134688;27;19908;-42
2022/11/17 14:34:03;;;;;;;;;;;8.60;99.90;;;;;;5134316;27;20383;-43
2022/11/17 14:36:30;;;;;;;;;;;8.60;99.90;;;;;;5134744;27;19923;-42
2022/11/17 14:38:56;;;;;;;;;;;8.60;99.90;;;;;;5134598;27;19915;-42
2022/11/17 14:41:21;;;;;;;;;;;8.60;99.90;;;;;;5134305;27;19923;-42
2022/11/17 14:43:47;;;;;;;;;;;8.70;99.90;;;;;;5130014;27;19919;-42
2022/11/17 14:46:16;;;;;;;;;;;8.70;99.90;;;;;;5115732;27;19920;-42
2022/11/17 14:48:41;;;;;;;;;;;8.70;99.90;;;;;;5134111;27;19934;-42
2022/11/17 14:51:07;;;;;;;;;;;8.70;99.90;;;;;;5134205;27;19908;-43
2022/11/17 14:53:32;;;;;;;;;;;8.70;99.90;;;;;;5134665;27;19918;-42
2022/11/17 14:56:04;;;;;;;;;;;8.70;99.90;;;;;;5133198;27;19961;-41
2022/11/17 14:58:29;;;;;;;;;;;8.70;99.90;;;;;;5134594;27;19923;-43
2022/11/17 15:00:55;;;;;;;;;;;8.70;99.90;;;;;;5134050;27;19922;-41
2022/11/17 15:03:20;;;;;;;;;;;8.70;99.90;;;;;;5117097;27;19908;-41
2022/11/17 15:05:46;;;;;;;;;;;8.70;99.90;;;;;;5132804;27;19929;-40
2022/11/17 15:08:12;;;;;;;;;;;8.80;99.90;;;;;;5133979;27;19908;-42
2022/11/17 15:10:41;;;;;;;;;;;8.70;99.90;;;;;;5134999;27;20250;-41